createdAt,value
2022-09-15T00:01:27.909Z,18.65
2022-09-15T00:03:55.730Z,18.66
2022-09-15T00:06:23.669Z,18.67
2022-09-15T00:08:51.507Z,18.68
2022-09-15T00:11:22.948Z,18.68
2022-09-15T00:13:52.355Z,18.70
2022-09-15T00:16:26.386Z,18.70
2022-09-15T00:18:54.702Z,18.68
2022-09-15T00:21:24.900Z,18.70
2022-09-15T00:23:53.048Z,18.70
2022-09-15T00:26:24.503Z,18.70
2022-09-15T00:28:55.677Z,18.69
2022-09-15T00:31:26.183Z,18.69
2022-09-15T00:33:56.057Z,18.68
2022-09-15T00:36:27.692Z,18.71
2022-09-15T00:38:56.091Z,18.70
2022-09-15T00:41:26.226Z,18.70
2022-09-15T00:43:56.950Z,18.68
2022-09-15T00:46:30.959Z,18.69
2022-09-15T00:49:04.850Z,18.69
2022-09-15T00:51:38.200Z,18.67
2022-09-15T00:54:09.387Z,18.66
2022-09-15T00:56:41.779Z,18.64
2022-09-15T00:59:17.900Z,18.64
2022-09-15T01:01:48.116Z,18.63
2022-09-15T01:04:17.493Z,18.59
2022-09-15T01:06:49.011Z,18.57
2022-09-15T01:09:20.417Z,18.51
2022-09-15T01:11:50.145Z,18.49
2022-09-15T01:14:18.267Z,18.46
2022-09-15T01:16:54.564Z,18.42
2022-09-15T01:20:04.543Z,18.41
2022-09-15T01:22:39.599Z,18.39
2022-09-15T01:25:11.260Z,18.38
2022-09-15T01:28:15.202Z,18.37
2022-09-15T01:30:52.035Z,18.33
2022-09-15T01:33:32.164Z,18.31
2022-09-15T01:36:11.578Z,18.27
2022-09-15T01:38:51.539Z,18.27
2022-09-15T01:41:25.899Z,18.25
2022-09-15T01:43:59.585Z,18.23
2022-09-15T01:46:32.444Z,18.23
2022-09-15T01:49:02.985Z,18.19
2022-09-15T01:51:33.240Z,18.18
2022-09-15T01:54:04.039Z,18.14
2022-09-15T01:56:32.069Z,18.12
2022-09-15T01:58:59.945Z,18.10
2022-09-15T02:01:34.852Z,18.07
2022-09-15T02:04:11.991Z,18.02
2022-09-15T02:06:47.281Z,18.00
2022-09-15T02:09:21.895Z,17.99
2022-09-15T02:11:58.957Z,17.96
2022-09-15T02:14:43.111Z,17.96
2022-09-15T02:17:15.929Z,17.93
2022-09-15T02:19:50.458Z,17.89
2022-09-15T02:22:23.415Z,17.91
2022-09-15T02:24:57.020Z,17.88
2022-09-15T02:27:28.157Z,17.85
2022-09-15T02:30:00.905Z,17.85
2022-09-15T02:32:31.635Z,17.84
2022-09-15T02:35:06.638Z,17.84
2022-09-15T02:37:37.584Z,17.84
2022-09-15T02:40:07.023Z,17.84
2022-09-15T02:42:35.483Z,17.80
2022-09-15T02:45:04.777Z,17.79
2022-09-15T02:47:34.191Z,17.78
2022-09-15T02:50:02.343Z,17.80
2022-09-15T02:52:30.165Z,17.78
2022-09-15T02:54:58.176Z,17.75
2022-09-15T02:57:26.226Z,17.76
2022-09-15T03:00:11.430Z,17.75
2022-09-15T03:02:41.323Z,17.77
2022-09-15T03:05:10.619Z,17.78
2022-09-15T03:07:39.046Z,17.77
2022-09-15T03:10:08.888Z,17.77
2022-09-15T03:12:39.454Z,17.74
2022-09-15T03:15:10.162Z,17.76
2022-09-15T03:17:42.456Z,17.79
2022-09-15T03:20:12.679Z,17.77
2022-09-15T03:22:40.870Z,17.78
2022-09-15T03:25:10.496Z,17.75
2022-09-15T03:27:38.619Z,17.84
2022-09-15T03:30:08.339Z,17.75
2022-09-15T03:32:36.608Z,17.69
2022-09-15T03:35:07.237Z,17.67
2022-09-15T03:37:37.311Z,17.67
2022-09-15T03:40:06.144Z,17.64
2022-09-15T03:42:34.125Z,17.62
2022-09-15T03:45:01.999Z,17.56
2022-09-15T03:47:29.941Z,17.51
2022-09-15T03:49:58.130Z,17.54
2022-09-15T03:52:27.454Z,17.52
2022-09-15T03:54:55.618Z,17.53
2022-09-15T03:57:26.496Z,17.45
2022-09-15T03:59:54.390Z,17.42
2022-09-15T04:02:22.387Z,17.44
2022-09-15T04:04:51.402Z,17.39
2022-09-15T04:07:19.231Z,17.41
2022-09-15T04:09:48.584Z,17.36
2022-09-15T04:12:16.681Z,17.35
2022-09-15T04:14:44.899Z,17.36
2022-09-15T04:17:12.698Z,17.36
2022-09-15T04:19:40.623Z,17.34
2022-09-15T04:22:08.493Z,17.33
2022-09-15T04:24:36.668Z,17.33
2022-09-15T04:27:06.069Z,17.32
2022-09-15T04:29:34.144Z,17.32
2022-09-15T04:32:02.089Z,17.33
2022-09-15T04:34:30.049Z,17.33
2022-09-15T04:36:58.585Z,17.30
2022-09-15T04:39:26.580Z,17.29
2022-09-15T04:41:56.444Z,17.42
2022-09-15T04:44:27.820Z,17.34
2022-09-15T04:46:55.692Z,17.30
2022-09-15T04:49:24.441Z,17.23
2022-09-15T04:51:53.071Z,17.18
2022-09-15T04:54:21.192Z,17.15
2022-09-15T04:56:51.372Z,17.10
2022-09-15T04:59:20.076Z,17.12
2022-09-15T05:01:49.244Z,17.13
2022-09-15T05:04:17.154Z,17.13
2022-09-15T05:06:45.050Z,17.16
2022-09-15T05:09:15.973Z,17.14
2022-09-15T05:11:44.057Z,17.04
2022-09-15T05:14:12.621Z,17.06
2022-09-15T05:16:41.066Z,17.07
2022-09-15T05:19:13.158Z,17.03
2022-09-15T05:21:41.100Z,17.02
2022-09-15T05:24:08.944Z,17.01
2022-09-15T05:26:37.296Z,17.02
2022-09-15T05:29:32.631Z,17.03
2022-09-15T05:32:00.551Z,17.03
2022-09-15T05:34:32.440Z,17.00
2022-09-15T05:37:02.407Z,17.02
2022-09-15T05:39:30.416Z,17.04
2022-09-15T05:41:58.272Z,17.05
2022-09-15T05:44:26.196Z,17.07
2022-09-15T05:46:54.004Z,17.04
2022-09-15T05:49:21.938Z,17.12
2022-09-15T05:51:51.177Z,17.09
2022-09-15T05:54:19.216Z,17.08
2022-09-15T05:56:46.984Z,17.08
2022-09-15T05:59:17.338Z,17.09
2022-09-15T06:01:45.392Z,17.11
2022-09-15T06:04:13.358Z,17.09
2022-09-15T06:06:41.380Z,17.07
2022-09-15T06:09:10.625Z,17.08
2022-09-15T06:11:38.525Z,17.15
2022-09-15T06:14:06.662Z,17.20
2022-09-15T06:16:36.597Z,17.19
2022-09-15T06:19:05.075Z,17.20
2022-09-15T06:21:34.193Z,17.26
2022-09-15T06:24:04.593Z,17.26
2022-09-15T06:26:34.698Z,17.28
2022-09-15T06:29:04.956Z,17.30
2022-09-15T06:31:34.521Z,17.38
2022-09-15T06:34:03.930Z,17.39
2022-09-15T06:36:34.088Z,17.40
2022-09-15T06:39:02.794Z,17.42
2022-09-15T06:41:47.148Z,17.40
2022-09-15T06:44:20.805Z,17.44
2022-09-15T06:46:51.495Z,17.46
2022-09-15T06:49:20.027Z,17.51
2022-09-15T06:51:47.852Z,17.54
2022-09-15T06:54:16.712Z,17.59
2022-09-15T06:56:45.504Z,17.66
2022-09-15T06:59:13.986Z,17.73
2022-09-15T07:01:45.253Z,17.75
2022-09-15T07:04:13.066Z,17.76
2022-09-15T07:06:42.078Z,17.79
2022-09-15T07:09:11.967Z,17.77
2022-09-15T07:11:39.841Z,17.81
2022-09-15T07:14:07.807Z,17.86
2022-09-15T07:16:35.756Z,17.92
2022-09-15T07:19:07.334Z,17.95
2022-09-15T07:21:37.439Z,17.99
2022-09-15T07:24:07.763Z,18.02
2022-09-15T07:26:36.295Z,18.07
2022-09-15T07:29:07.769Z,18.09
2022-09-15T07:31:37.740Z,18.11
2022-09-15T07:34:07.730Z,18.13
2022-09-15T07:36:35.814Z,18.21
2022-09-15T07:39:04.895Z,18.29
2022-09-15T07:41:33.460Z,18.31
2022-09-15T07:44:08.021Z,18.32
2022-09-15T07:46:36.378Z,18.31
2022-09-15T07:49:06.426Z,18.28
2022-09-15T07:51:35.674Z,18.27
2022-09-15T07:54:03.490Z,18.31
2022-09-15T07:56:33.925Z,18.31
2022-09-15T07:59:01.810Z,18.36
2022-09-15T08:01:29.888Z,18.43
2022-09-15T08:03:57.791Z,18.48
2022-09-15T08:06:27.482Z,18.52
2022-09-15T08:09:00.753Z,18.53
2022-09-15T08:11:29.835Z,18.57
2022-09-15T08:13:57.722Z,18.64
2022-09-15T08:16:25.738Z,18.65
2022-09-15T08:18:55.173Z,18.73
2022-09-15T08:21:23.987Z,18.77
2022-09-15T08:23:53.196Z,18.82
2022-09-15T08:26:22.823Z,18.82
2022-09-15T08:28:50.650Z,18.81
2022-09-15T08:31:19.170Z,18.85
2022-09-15T08:33:49.485Z,18.89
2022-09-15T08:36:18.007Z,18.97
2022-09-15T08:38:47.385Z,19.02
2022-09-15T08:41:19.724Z,19.02
2022-09-15T08:43:57.403Z,19.07
2022-09-15T08:46:30.701Z,19.19
2022-09-15T08:49:06.325Z,19.23
2022-09-15T08:51:41.912Z,19.24
2022-09-15T08:54:17.344Z,19.26
2022-09-15T08:56:45.816Z,19.23
2022-09-15T08:59:17.341Z,19.24
2022-09-15T09:02:05.766Z,19.27
2022-09-15T09:04:58.997Z,19.37
2022-09-15T09:07:45.822Z,19.48
2022-09-15T09:10:18.338Z,19.49
2022-09-15T09:13:02.606Z,19.53
2022-09-15T09:15:43.419Z,19.56
2022-09-15T09:18:34.350Z,19.65
2022-09-15T09:21:09.718Z,19.72
2022-09-15T09:23:47.006Z,19.81
2022-09-15T09:26:17.808Z,19.83
2022-09-15T09:28:51.018Z,19.85
2022-09-15T09:31:23.176Z,19.84
2022-09-15T09:33:56.870Z,19.77
2022-09-15T09:36:24.876Z,19.76
2022-09-15T09:38:52.803Z,19.79
2022-09-15T09:41:26.003Z,19.85
2022-09-15T09:43:56.871Z,19.81
2022-09-15T09:46:26.241Z,19.84
2022-09-15T09:48:57.320Z,19.89
2022-09-15T09:51:39.867Z,19.98
2022-09-15T09:54:16.433Z,20.05
2022-09-15T09:56:47.937Z,20.09
2022-09-15T09:59:41.900Z,20.19
2022-09-15T10:02:17.597Z,20.02
2022-09-15T10:04:47.327Z,20.12
2022-09-15T10:07:17.549Z,20.07
2022-09-15T10:09:54.775Z,20.08
2022-09-15T10:12:30.701Z,20.08
2022-09-15T10:15:02.247Z,20.20
2022-09-15T10:17:43.520Z,20.12
2022-09-15T10:20:32.641Z,20.27
2022-09-15T10:23:06.284Z,20.40
2022-09-15T10:25:58.653Z,20.73
2022-09-15T10:28:28.285Z,20.68
2022-09-15T10:31:02.208Z,20.66
2022-09-15T10:33:34.773Z,20.67
2022-09-15T10:36:07.225Z,20.74
2022-09-15T10:38:44.234Z,20.82
2022-09-15T10:41:21.668Z,20.90
2022-09-15T10:44:03.221Z,21.01
2022-09-15T10:46:42.621Z,21.11
2022-09-15T10:49:25.290Z,21.20
2022-09-15T10:52:03.854Z,21.26
2022-09-15T10:54:48.717Z,21.36
2022-09-15T10:57:32.157Z,21.27
2022-09-15T11:00:05.591Z,21.13
2022-09-15T11:02:59.668Z,21.01
2022-09-15T11:05:40.898Z,20.99
2022-09-15T11:08:33.191Z,21.02
2022-09-15T11:11:09.279Z,21.05
2022-09-15T11:13:47.384Z,21.27
2022-09-15T11:16:28.145Z,21.45
2022-09-15T11:19:09.205Z,21.49
2022-09-15T11:21:40.851Z,21.43
2022-09-15T11:24:27.170Z,21.20
2022-09-15T11:26:59.105Z,20.95
2022-09-15T11:29:32.179Z,20.83
2022-09-15T11:32:06.227Z,20.77
2022-09-15T11:34:39.150Z,20.81
2022-09-15T11:37:16.219Z,20.88
2022-09-15T11:39:51.167Z,20.99
2022-09-15T11:42:22.197Z,21.12
2022-09-15T11:44:50.700Z,20.97
2022-09-15T11:47:27.212Z,20.89
2022-09-15T11:50:01.455Z,20.82
2022-09-15T11:52:45.480Z,20.58
2022-09-15T11:55:24.321Z,20.38
2022-09-15T11:58:00.449Z,20.38
2022-09-15T12:00:28.412Z,20.28
2022-09-15T12:03:07.501Z,20.33
2022-09-15T12:05:40.329Z,20.35
2022-09-15T12:08:16.317Z,20.56
2022-09-15T12:10:49.396Z,20.55
2022-09-15T12:13:20.163Z,20.41
2022-09-15T12:15:52.392Z,20.38
2022-09-15T12:18:39.048Z,20.46
2022-09-15T12:21:16.209Z,20.38
2022-09-15T12:23:50.652Z,20.43
2022-09-15T12:26:20.826Z,20.46
2022-09-15T12:28:57.676Z,20.31
2022-09-15T12:31:32.126Z,20.20
2022-09-15T12:34:01.750Z,20.17
2022-09-15T12:36:42.692Z,20.21
2022-09-15T12:39:25.368Z,20.27
2022-09-15T12:41:55.539Z,20.60
2022-09-15T12:44:34.091Z,20.95
2022-09-15T12:47:04.075Z,21.08
2022-09-15T12:49:38.031Z,21.18
2022-09-15T12:52:08.273Z,21.29
2022-09-15T12:54:40.773Z,21.47
2022-09-15T12:57:20.049Z,21.46
2022-09-15T12:59:47.985Z,21.50
2022-09-15T13:02:43.706Z,21.46
2022-09-15T13:05:12.757Z,21.28
2022-09-15T13:07:58.709Z,21.14
2022-09-15T13:10:34.331Z,21.02
2022-09-15T13:13:24.228Z,20.84
2022-09-15T13:15:54.582Z,20.86
2022-09-15T13:18:24.609Z,20.87
2022-09-15T13:20:59.840Z,20.91
2022-09-15T13:23:29.840Z,20.82
2022-09-15T13:26:02.762Z,20.77
2022-09-15T13:28:30.895Z,20.66
2022-09-15T13:31:12.981Z,20.65
2022-09-15T13:40:12.902Z,21.58
2022-09-15T13:42:56.248Z,21.61
2022-09-15T13:45:41.477Z,21.77
2022-09-15T13:48:31.141Z,21.82
2022-09-15T13:51:02.126Z,21.86
2022-09-15T13:53:47.893Z,21.83
2022-09-15T13:56:23.244Z,21.83
2022-09-15T13:59:05.345Z,21.84
2022-09-15T14:01:38.772Z,21.65
2022-09-15T14:04:10.753Z,21.52
2022-09-15T14:06:42.614Z,21.24
2022-09-15T14:09:15.785Z,21.06
2022-09-15T14:11:44.834Z,20.96
2022-09-15T14:14:32.345Z,20.88
2022-09-15T14:17:02.607Z,21.02
2022-09-15T14:19:34.288Z,21.02
2022-09-15T14:22:03.503Z,21.03
2022-09-15T14:24:33.058Z,21.08
2022-09-15T14:27:10.190Z,21.04
2022-09-15T14:29:43.532Z,20.77
2022-09-15T14:32:15.747Z,20.63
2022-09-15T14:34:45.173Z,20.58
2022-09-15T14:37:18.977Z,20.47
2022-09-15T14:39:50.379Z,20.43
2022-09-15T14:42:22.961Z,20.51
2022-09-15T14:47:43.444Z,20.74
2022-09-15T14:50:15.629Z,21.12
2022-09-15T14:52:45.114Z,21.63
2022-09-15T14:55:16.686Z,22.13
2022-09-15T14:57:49.000Z,22.42
2022-09-15T15:00:23.415Z,22.54
2022-09-15T15:03:00.915Z,22.63
2022-09-15T15:05:34.507Z,22.81
2022-09-15T15:08:05.838Z,23.15
2022-09-15T15:10:36.736Z,23.31
2022-09-15T15:13:08.286Z,23.31
2022-09-15T15:15:38.570Z,23.34
2022-09-15T15:18:31.603Z,23.33
2022-09-15T15:21:00.061Z,23.23
2022-09-15T15:23:31.959Z,23.18
2022-09-15T15:26:33.824Z,23.04
2022-09-15T15:29:01.773Z,22.92
2022-09-15T15:31:31.352Z,22.73
2022-09-15T15:34:05.222Z,22.83
2022-09-15T15:36:35.601Z,22.62
2022-09-15T15:39:07.127Z,22.63
2022-09-15T15:41:37.235Z,22.45
2022-09-15T15:44:08.751Z,22.39
2022-09-15T15:46:49.774Z,22.61
2022-09-15T15:49:18.321Z,22.52
2022-09-15T15:51:46.122Z,22.34
2022-09-15T15:54:14.781Z,22.25
2022-09-15T15:56:42.721Z,22.14
2022-09-15T15:59:13.539Z,22.14
2022-09-15T16:01:41.679Z,21.82
2022-09-15T16:04:12.119Z,21.54
2022-09-15T16:06:40.465Z,21.41
2022-09-15T16:09:08.370Z,21.34
2022-09-15T16:11:36.258Z,21.19
2022-09-15T16:14:04.183Z,21.19
2022-09-15T16:16:33.620Z,21.16
2022-09-15T16:19:01.551Z,20.95
2022-09-15T16:21:37.240Z,21.02
2022-09-15T16:24:06.169Z,21.10
2022-09-15T16:26:35.555Z,21.11
2022-09-15T16:29:03.545Z,21.02
2022-09-15T16:31:31.971Z,20.93
2022-09-15T16:33:59.913Z,20.69
2022-09-15T16:36:27.925Z,20.72
2022-09-15T16:38:57.170Z,20.50
2022-09-15T16:41:25.693Z,20.37
2022-09-15T16:43:55.685Z,20.26
2022-09-15T16:46:23.720Z,20.20
2022-09-15T16:48:51.922Z,20.10
2022-09-15T16:51:31.386Z,20.29
2022-09-15T16:54:00.977Z,20.04
2022-09-15T16:56:29.358Z,19.97
2022-09-15T16:59:00.424Z,20.02
2022-09-15T17:01:29.121Z,19.89
2022-09-15T17:03:57.497Z,19.76
2022-09-15T17:06:25.276Z,19.65
2022-09-15T17:08:53.384Z,19.67
2022-09-15T17:11:23.798Z,19.67
2022-09-15T17:13:52.253Z,19.67
2022-09-15T17:16:20.498Z,19.57
2022-09-15T17:18:49.177Z,19.58
2022-09-15T17:21:19.793Z,19.58
2022-09-15T17:23:49.430Z,19.43
2022-09-15T17:26:20.642Z,19.45
2022-09-15T17:28:50.388Z,19.40
2022-09-15T17:31:21.126Z,19.36
2022-09-15T17:33:50.464Z,19.35
2022-09-15T17:36:18.598Z,19.29
2022-09-15T17:38:48.697Z,19.26
2022-09-15T17:41:17.994Z,19.26
2022-09-15T17:43:46.093Z,19.22
2022-09-15T17:46:15.346Z,19.21
2022-09-15T17:48:43.381Z,19.21
2022-09-15T17:51:17.924Z,19.19
2022-09-15T17:53:46.838Z,19.18
2022-09-15T17:56:14.857Z,19.11
2022-09-15T17:58:43.160Z,19.09
2022-09-15T18:01:15.644Z,19.06
2022-09-15T18:03:44.964Z,18.99
2022-09-15T18:06:13.683Z,18.97
2022-09-15T18:08:41.659Z,18.95
2022-09-15T18:11:15.093Z,18.95
2022-09-15T18:13:43.360Z,18.94
2022-09-15T18:16:13.793Z,18.93
2022-09-15T18:18:43.532Z,18.92
2022-09-15T18:21:23.427Z,18.96
2022-09-15T18:23:51.399Z,18.91
2022-09-15T18:26:23.856Z,18.96
2022-09-15T18:28:54.214Z,19.11
2022-09-15T18:31:22.311Z,19.04
2022-09-15T18:33:52.299Z,18.98
2022-09-15T18:36:20.573Z,18.88
2022-09-15T18:38:48.479Z,19.00
2022-09-15T18:41:16.341Z,19.07
2022-09-15T18:43:48.753Z,18.88
2022-09-15T18:46:17.097Z,18.82
2022-09-15T18:48:44.863Z,19.01
2022-09-15T18:51:23.830Z,18.88
2022-09-15T18:53:57.363Z,18.77
2022-09-15T18:56:25.127Z,18.78
2022-09-15T18:58:53.374Z,18.59
2022-09-15T19:01:21.446Z,18.60
2022-09-15T19:03:49.521Z,18.50
2022-09-15T19:06:18.642Z,18.53
2022-09-15T19:08:46.481Z,18.47
2022-09-15T19:11:14.414Z,18.37
2022-09-15T19:13:42.270Z,18.30
2022-09-15T19:16:10.404Z,18.24
2022-09-15T19:18:38.927Z,18.21
2022-09-15T19:21:08.061Z,18.27
2022-09-15T19:23:37.857Z,18.21
2022-09-15T19:26:07.054Z,18.26
2022-09-15T19:28:35.315Z,18.12
2022-09-15T19:31:03.177Z,17.93
2022-09-15T19:33:31.123Z,17.97
2022-09-15T19:36:17.285Z,17.82
2022-09-15T19:38:52.192Z,17.74
2022-09-15T19:41:22.969Z,17.84
2022-09-15T19:43:50.922Z,17.86
2022-09-15T19:46:21.352Z,17.77
2022-09-15T19:48:50.205Z,17.72
2022-09-15T19:51:19.263Z,17.64
2022-09-15T19:53:47.840Z,17.62
2022-09-15T19:56:19.702Z,17.63
2022-09-15T19:58:47.579Z,17.60
2022-09-15T20:01:15.561Z,17.75
2022-09-15T20:03:43.515Z,17.69
2022-09-15T20:06:11.381Z,17.64
2022-09-15T20:08:41.495Z,17.57
2022-09-15T20:11:10.592Z,17.64
2022-09-15T20:13:41.473Z,17.60
2022-09-15T20:16:09.563Z,17.60
2022-09-15T20:18:41.163Z,17.61
2022-09-15T20:21:12.358Z,17.62
2022-09-15T20:23:50.446Z,17.64
2022-09-15T20:26:19.223Z,17.58
2022-09-15T20:28:48.524Z,17.64
2022-09-15T20:31:19.148Z,17.58
2022-09-15T20:33:48.800Z,17.56
2022-09-15T20:36:18.557Z,17.59
2022-09-15T20:38:47.581Z,17.62
2022-09-15T20:41:19.692Z,17.59
2022-09-15T20:43:53.978Z,17.71
2022-09-15T20:46:23.551Z,17.69
2022-09-15T20:48:52.387Z,17.76
2022-09-15T20:51:22.630Z,17.87
2022-09-15T20:53:52.603Z,17.81
2022-09-15T20:56:25.239Z,17.61
2022-09-15T20:58:55.474Z,17.46
2022-09-15T21:01:24.895Z,17.49
2022-09-15T21:03:55.259Z,17.47
2022-09-15T21:06:24.876Z,17.48
2022-09-15T21:08:53.241Z,17.51
2022-09-15T21:11:23.163Z,17.38
2022-09-15T21:13:51.429Z,17.31
2022-09-15T21:16:25.198Z,17.32
2022-09-15T21:18:53.371Z,17.23
2022-09-15T21:21:23.178Z,17.33
2022-09-15T21:23:54.195Z,17.23
2022-09-15T21:26:23.437Z,17.15
2022-09-15T21:28:52.051Z,17.23
2022-09-15T21:31:21.584Z,17.29
2022-09-15T21:33:52.382Z,17.22
2022-09-15T21:36:22.392Z,17.19
2022-09-15T21:38:51.899Z,17.13
2022-09-15T21:41:21.974Z,17.12
2022-09-15T21:43:53.077Z,17.08
2022-09-15T21:46:22.275Z,17.11
2022-09-15T21:48:51.977Z,17.12
2022-09-15T21:51:24.536Z,17.09
2022-09-15T21:53:54.468Z,17.16
2022-09-15T21:56:23.262Z,17.15
2022-09-15T21:58:51.416Z,17.16
2022-09-15T22:01:21.112Z,17.17
2022-09-15T22:03:52.398Z,17.13
2022-09-15T22:06:21.383Z,17.15
2022-09-15T22:08:49.685Z,17.23
2022-09-15T22:11:17.501Z,17.24
2022-09-15T22:13:45.560Z,17.18
2022-09-15T22:16:17.714Z,17.09
2022-09-15T22:18:46.443Z,17.07
2022-09-15T22:21:17.587Z,17.09
2022-09-15T22:23:49.457Z,17.07
2022-09-15T22:26:20.362Z,17.09
2022-09-15T22:28:48.647Z,17.07
2022-09-15T22:31:19.138Z,17.08
2022-09-15T22:33:47.352Z,17.06
2022-09-15T22:36:18.414Z,17.07
2022-09-15T22:38:47.015Z,17.05
2022-09-15T22:41:17.477Z,17.05
2022-09-15T22:43:47.946Z,17.06
2022-09-15T22:46:16.431Z,17.06
2022-09-15T22:48:44.290Z,17.05
2022-09-15T22:51:12.981Z,17.02
2022-09-15T22:53:42.672Z,17.04
2022-09-15T22:56:14.513Z,17.03
2022-09-15T22:58:44.078Z,17.01
2022-09-15T23:01:13.836Z,17.01
2022-09-15T23:03:43.620Z,16.99
2022-09-15T23:06:11.687Z,16.99
2022-09-15T23:08:39.598Z,16.99
2022-09-15T23:11:10.565Z,16.96
2022-09-15T23:13:39.486Z,16.94
2022-09-15T23:16:08.832Z,16.98
2022-09-15T23:18:37.655Z,16.95
2022-09-15T23:21:09.172Z,16.97
2022-09-15T23:23:39.009Z,16.96
2022-09-15T23:26:10.363Z,16.97
2022-09-15T23:28:39.912Z,16.95
2022-09-15T23:31:08.993Z,16.95
2022-09-15T23:33:36.989Z,16.97
2022-09-15T23:36:06.922Z,16.94
2022-09-15T23:38:37.023Z,16.94
2022-09-15T23:41:05.375Z,16.92
2022-09-15T23:43:35.112Z,16.92
2022-09-15T23:46:07.406Z,16.91
2022-09-15T23:48:35.439Z,16.82
2022-09-15T23:51:04.174Z,16.81
2022-09-15T23:53:32.082Z,16.81
2022-09-15T23:55:59.998Z,16.80
2022-09-15T23:58:28.545Z,16.79
